Devers, Texas
Current Conditions -  °F | °C
As of 10:55 AM on Thursday 23 Oct 2014 (Local Time) from KBMT Reporting Station
Clear Clear  
Wind Chill: 65°   Ceiling: Unl
Heat Index: 65°   Visibility: 10mi
Dew Point: 54°   Wind: 3mph
Humidity: 68%   Direction: 40°NE
Pressure: 30.14"   Gusts: NA
Location:  30.03°N, 94.59°W
Report Text: KBMT 231555Z AUTO 04003KT 10SM CLR 18/12 A3014 RMK AO2 T01810121
Loading
Personal Weather Stations






























Interactive Weather Map
Tropical Storm Tracking
New forecast layout! Learn more

10-Day Weather Forecast

Advertisements
Track Severe Weather on mobile